createdAt,value
2022-11-25T00:03:49.990Z,0.97
2022-11-25T00:13:54.548Z,0.91
2022-11-25T00:24:01.336Z,0.99
2022-11-25T00:34:04.990Z,1.12
2022-11-25T00:44:29.578Z,1.15
2022-11-25T00:54:34.005Z,1.13
2022-11-25T01:04:37.954Z,1.10
2022-11-25T01:14:41.500Z,1.15
2022-11-25T01:24:44.556Z,1.30
2022-11-25T01:34:47.690Z,1.24
2022-11-25T01:45:19.017Z,1.11
2022-11-25T01:55:30.956Z,1.20
2022-11-25T02:06:22.618Z,1.31
2022-11-25T02:16:26.424Z,1.28
2022-11-25T02:26:31.303Z,1.21
2022-11-25T02:36:34.914Z,1.28
2022-11-25T02:46:38.068Z,1.30
2022-11-25T02:56:41.497Z,1.29
2022-11-25T03:06:45.102Z,1.22
2022-11-25T03:16:48.274Z,1.24
2022-11-25T03:26:51.562Z,1.30
2022-11-25T03:36:55.108Z,1.30
2022-11-25T03:46:59.771Z,1.23
2022-11-25T03:57:03.263Z,1.32
2022-11-25T04:07:09.530Z,1.44
2022-11-25T04:17:12.784Z,1.39
2022-11-25T04:27:16.167Z,1.30
2022-11-25T04:37:19.447Z,1.37
2022-11-25T04:47:23.216Z,1.50
2022-11-25T04:57:26.425Z,1.51
2022-11-25T05:07:29.945Z,1.40
2022-11-25T05:17:33.886Z,1.41
2022-11-25T05:27:37.205Z,1.52
2022-11-25T05:37:45.070Z,1.52
2022-11-25T05:47:48.956Z,1.43
2022-11-25T05:57:54.785Z,1.47
2022-11-25T06:07:58.221Z,1.56
2022-11-25T06:18:02.415Z,1.45
2022-11-25T06:28:13.899Z,1.42
2022-11-25T06:38:20.772Z,1.55
2022-11-25T06:48:23.989Z,1.65
2022-11-25T06:58:35.831Z,1.59
2022-11-25T07:08:39.668Z,1.56
2022-11-25T07:18:43.158Z,1.68
2022-11-25T07:28:46.209Z,1.91
2022-11-25T07:38:49.470Z,1.87
2022-11-25T07:48:54.010Z,1.74
2022-11-25T07:58:57.608Z,1.80
2022-11-25T08:09:00.861Z,2.02
2022-11-25T08:19:07.160Z,2.15
2022-11-25T08:29:13.592Z,2.07
2022-11-25T08:49:42.321Z,2.30
2022-11-25T08:59:45.670Z,2.33
2022-11-25T09:09:49.893Z,2.25
2022-11-25T09:19:53.403Z,2.26
2022-11-25T09:29:56.491Z,2.39
2022-11-25T09:39:59.635Z,2.51
2022-11-25T09:50:27.733Z,2.53
2022-11-25T10:00:51.702Z,2.46
2022-11-25T10:11:03.891Z,2.54
2022-11-25T10:21:10.523Z,2.66
2022-11-25T10:31:27.263Z,2.63
2022-11-25T10:42:03.691Z,2.58
2022-11-25T10:52:12.281Z,2.68
2022-11-25T11:02:28.316Z,2.77
2022-11-25T11:12:33.046Z,2.78
2022-11-25T11:22:44.781Z,2.81
2022-11-25T11:33:28.121Z,3.00
2022-11-25T11:43:54.597Z,3.18
2022-11-25T11:54:10.251Z,3.16
2022-11-25T12:04:20.273Z,3.12
2022-11-25T12:14:44.261Z,3.19
2022-11-25T12:25:01.306Z,3.33
2022-11-25T12:35:10.875Z,3.23
2022-11-25T12:45:25.964Z,3.11
2022-11-25T12:55:30.370Z,3.12
2022-11-25T13:06:16.462Z,3.23
2022-11-25T13:16:21.048Z,3.19
2022-11-25T13:37:47.871Z,3.14
2022-11-25T13:47:51.183Z,3.12
2022-11-25T13:58:41.758Z,3.01
2022-11-25T14:09:10.592Z,2.96
2022-11-25T14:20:00.589Z,3.06
2022-11-25T14:30:17.656Z,3.26
2022-11-25T14:40:27.455Z,3.27
2022-11-25T14:50:35.121Z,3.17
2022-11-25T15:01:57.158Z,3.20
2022-11-25T15:12:47.188Z,3.33
2022-11-25T15:45:43.190Z,3.06
2022-11-25T15:55:46.473Z,3.14
2022-11-25T16:05:57.305Z,2.99
2022-11-25T16:16:15.955Z,2.89
2022-11-25T16:26:32.448Z,2.96
2022-11-25T16:36:35.647Z,3.07
2022-11-25T16:46:38.892Z,3.03
2022-11-25T16:56:43.762Z,2.89
2022-11-25T17:07:09.808Z,2.93
2022-11-25T17:17:24.449Z,3.05
2022-11-25T17:27:31.259Z,2.92
2022-11-25T17:37:34.337Z,2.75
2022-11-25T17:47:37.416Z,2.82
2022-11-25T17:57:40.609Z,2.98
2022-11-25T18:07:46.836Z,2.93
2022-11-25T18:17:51.699Z,2.83
2022-11-25T18:27:57.056Z,2.84
2022-11-25T18:38:00.444Z,3.01
2022-11-25T18:48:14.839Z,3.08
2022-11-25T18:58:23.863Z,2.99
2022-11-25T19:08:27.494Z,3.02
2022-11-25T19:18:30.762Z,3.10
2022-11-25T19:28:34.488Z,3.03
2022-11-25T19:38:37.618Z,2.93
2022-11-25T19:48:40.839Z,3.05
2022-11-25T19:58:44.152Z,3.26
2022-11-25T20:08:47.560Z,3.21
2022-11-25T20:18:53.163Z,3.14
2022-11-25T20:28:56.330Z,3.17
2022-11-25T20:39:01.916Z,3.35
2022-11-25T20:49:21.044Z,3.29
2022-11-25T20:59:24.429Z,3.14
2022-11-25T21:09:35.114Z,3.25
2022-11-25T21:19:38.466Z,3.40
2022-11-25T21:29:43.549Z,3.35
2022-11-25T21:39:46.818Z,3.21
2022-11-25T21:49:50.931Z,3.32
2022-11-25T21:59:54.452Z,3.47
2022-11-25T22:09:57.502Z,3.45
2022-11-25T22:20:00.962Z,3.29
2022-11-25T22:30:05.763Z,3.34
2022-11-25T22:40:09.010Z,3.47
2022-11-25T22:50:20.795Z,3.29
2022-11-25T23:00:31.672Z,3.10
2022-11-25T23:10:34.942Z,3.25
2022-11-25T23:20:39.836Z,3.45
2022-11-25T23:30:58.943Z,3.38
2022-11-25T23:41:02.075Z,3.28
2022-11-25T23:51:06.474Z,3.39
